sensor_id;sensor_type;location;lat;lon;timestamp;temperature;humidity
12413;DHT22;13877;18.896;-99.222;2023-08-07T00:00:11;30.40;95.70
12413;DHT22;13877;18.896;-99.222;2023-08-07T00:02:38;30.60;96.30
12413;DHT22;13877;18.896;-99.222;2023-08-07T00:05:07;30.60;95.60
12413;DHT22;13877;18.896;-99.222;2023-08-07T00:07:34;30.40;95.80
12413;DHT22;13877;18.896;-99.222;2023-08-07T00:10:00;30.40;96.70
12413;DHT22;13877;18.896;-99.222;2023-08-07T00:12:27;30.20;96.40
12413;DHT22;13877;18.896;-99.222;2023-08-07T00:14:53;29.90;95.90
12413;DHT22;13877;18.896;-99.222;2023-08-07T00:17:20;29.50;96.60
12413;DHT22;13877;18.896;-99.222;2023-08-07T00:19:46;29.70;96.20
12413;DHT22;13877;18.896;-99.222;2023-08-07T00:22:12;29.90;96.50
12413;DHT22;13877;18.896;-99.222;2023-08-07T00:24:39;29.30;96.00
12413;DHT22;13877;18.896;-99.222;2023-08-07T00:27:05;28.70;97.40
12413;DHT22;13877;18.896;-99.222;2023-08-07T00:29:32;27.90;97.80
12413;DHT22;13877;18.896;-99.222;2023-08-07T00:31:59;27.30;98.90
12413;DHT22;13877;18.896;-99.222;2023-08-07T00:34:25;26.80;99.40
12413;DHT22;13877;18.896;-99.222;2023-08-07T00:36:52;26.60;99.30
12413;DHT22;13877;18.896;-99.222;2023-08-07T00:39:18;26.60;99.90
12413;DHT22;13877;18.896;-99.222;2023-08-07T00:41:44;26.50;99.90
12413;DHT22;13877;18.896;-99.222;2023-08-07T00:44:11;26.00;99.70
12413;DHT22;13877;18.896;-99.222;2023-08-07T00:46:37;25.60;99.90
12413;DHT22;13877;18.896;-99.222;2023-08-07T00:49:05;25.20;99.90
12413;DHT22;13877;18.896;-99.222;2023-08-07T00:51:33;24.90;99.90
12413;DHT22;13877;18.896;-99.222;2023-08-07T00:54:00;24.70;99.90
12413;DHT22;13877;18.896;-99.222;2023-08-07T00:56:28;24.50;99.90
12413;DHT22;13877;18.896;-99.222;2023-08-07T00:58:55;24.30;99.90
12413;DHT22;13877;18.896;-99.222;2023-08-07T01:01:22;24.20;99.90
12413;DHT22;13877;18.896;-99.222;2023-08-07T01:03:48;24.10;99.90
12413;DHT22;13877;18.896;-99.222;2023-08-07T01:06:15;24.00;99.90
12413;DHT22;13877;18.896;-99.222;2023-08-07T01:08:41;24.00;99.90
12413;DHT22;13877;18.896;-99.222;2023-08-07T01:13:55;23.70;99.90
12413;DHT22;13877;18.896;-99.222;2023-08-07T01:17:06;23.60;99.90
12413;DHT22;13877;18.896;-99.222;2023-08-07T01:19:34;23.60;99.90
12413;DHT22;13877;18.896;-99.222;2023-08-07T01:24:34;23.50;99.90
12413;DHT22;13877;18.896;-99.222;2023-08-07T01:29:43;23.40;99.90
12413;DHT22;13877;18.896;-99.222;2023-08-07T01:32:10;23.30;99.90
12413;DHT22;13877;18.896;-99.222;2023-08-07T01:34:40;23.20;99.90
12413;DHT22;13877;18.896;-99.222;2023-08-07T01:37:07;23.20;99.90
12413;DHT22;13877;18.896;-99.222;2023-08-07T01:39:33;23.10;99.90
12413;DHT22;13877;18.896;-99.222;2023-08-07T01:42:01;23.10;99.90
12413;DHT22;13877;18.896;-99.222;2023-08-07T01:44:28;23.00;99.90
12413;DHT22;13877;18.896;-99.222;2023-08-07T01:46:56;23.00;99.90
12413;DHT22;13877;18.896;-99.222;2023-08-07T01:49:22;23.00;99.90
12413;DHT22;13877;18.896;-99.222;2023-08-07T01:51:49;23.00;99.90
12413;DHT22;13877;18.896;-99.222;2023-08-07T01:54:15;23.00;99.90
12413;DHT22;13877;18.896;-99.222;2023-08-07T01:56:42;22.90;99.90
12413;DHT22;13877;18.896;-99.222;2023-08-07T01:59:08;22.80;99.90
12413;DHT22;13877;18.896;-99.222;2023-08-07T02:01:35;22.80;99.90
12413;DHT22;13877;18.896;-99.222;2023-08-07T02:04:01;22.80;99.90
12413;DHT22;13877;18.896;-99.222;2023-08-07T02:06:28;22.80;99.90
12413;DHT22;13877;18.896;-99.222;2023-08-07T02:08:54;22.90;99.90
12413;DHT22;13877;18.896;-99.222;2023-08-07T02:11:21;22.90;99.90
12413;DHT22;13877;18.896;-99.222;2023-08-07T02:13:47;23.00;99.90
12413;DHT22;13877;18.896;-99.222;2023-08-07T02:16:14;23.00;99.90
12413;DHT22;13877;18.896;-99.222;2023-08-07T02:18:40;23.00;99.90
12413;DHT22;13877;18.896;-99.222;2023-08-07T02:21:06;22.90;99.90
12413;DHT22;13877;18.896;-99.222;2023-08-07T02:23:34;22.90;99.90
12413;DHT22;13877;18.896;-99.222;2023-08-07T02:26:01;22.80;99.90
12413;DHT22;13877;18.896;-99.222;2023-08-07T02:28:27;22.70;99.90
12413;DHT22;13877;18.896;-99.222;2023-08-07T02:30:54;22.70;99.90
12413;DHT22;13877;18.896;-99.222;2023-08-07T02:33:20;22.70;99.90
12413;DHT22;13877;18.896;-99.222;2023-08-07T02:35:47;22.60;99.90
12413;DHT22;13877;18.896;-99.222;2023-08-07T02:38:13;22.60;99.90
12413;DHT22;13877;18.896;-99.222;2023-08-07T02:40:40;22.50;99.90
12413;DHT22;13877;18.896;-99.222;2023-08-07T02:43:07;22.40;99.90
12413;DHT22;13877;18.896;-99.222;2023-08-07T02:45:34;22.60;99.90
12413;DHT22;13877;18.896;-99.222;2023-08-07T02:48:00;22.70;99.90
12413;DHT22;13877;18.896;-99.222;2023-08-07T02:50:27;22.60;99.90
12413;DHT22;13877;18.896;-99.222;2023-08-07T02:52:55;22.50;99.90
12413;DHT22;13877;18.896;-99.222;2023-08-07T02:55:22;22.20;99.90
12413;DHT22;13877;18.896;-99.222;2023-08-07T02:57:48;22.20;99.90
12413;DHT22;13877;18.896;-99.222;2023-08-07T03:00:14;22.00;99.90
12413;DHT22;13877;18.896;-99.222;2023-08-07T03:02:41;22.10;99.90
12413;DHT22;13877;18.896;-99.222;2023-08-07T03:05:08;22.30;99.90
12413;DHT22;13877;18.896;-99.222;2023-08-07T03:07:34;22.50;99.90
12413;DHT22;13877;18.896;-99.222;2023-08-07T03:10:00;22.50;99.90
12413;DHT22;13877;18.896;-99.222;2023-08-07T03:12:27;22.50;99.90
12413;DHT22;13877;18.896;-99.222;2023-08-07T03:14:53;22.50;99.90
12413;DHT22;13877;18.896;-99.222;2023-08-07T03:17:20;22.40;99.90
12413;DHT22;13877;18.896;-99.222;2023-08-07T03:19:46;22.20;99.90
12413;DHT22;13877;18.896;-99.222;2023-08-07T03:22:13;22.00;99.90
12413;DHT22;13877;18.896;-99.222;2023-08-07T03:24:39;22.00;99.90
12413;DHT22;13877;18.896;-99.222;2023-08-07T03:27:06;22.20;99.90
12413;DHT22;13877;18.896;-99.222;2023-08-07T03:29:32;22.20;99.90
12413;DHT22;13877;18.896;-99.222;2023-08-07T03:31:59;22.10;99.90
12413;DHT22;13877;18.896;-99.222;2023-08-07T03:34:25;22.00;99.90
12413;DHT22;13877;18.896;-99.222;2023-08-07T03:36:52;21.80;99.90
12413;DHT22;13877;18.896;-99.222;2023-08-07T03:39:18;21.70;99.90
12413;DHT22;13877;18.896;-99.222;2023-08-07T03:41:45;21.50;99.90
12413;DHT22;13877;18.896;-99.222;2023-08-07T03:44:12;21.50;99.90
12413;DHT22;13877;18.896;-99.222;2023-08-07T03:46:38;21.40;99.90
12413;DHT22;13877;18.896;-99.222;2023-08-07T03:49:05;21.40;99.90
12413;DHT22;13877;18.896;-99.222;2023-08-07T03:51:32;21.40;99.90
12413;DHT22;13877;18.896;-99.222;2023-08-07T03:53:58;21.50;99.90
12413;DHT22;13877;18.896;-99.222;2023-08-07T03:56:26;21.60;99.90
12413;DHT22;13877;18.896;-99.222;2023-08-07T03:58:52;21.90;99.90
12413;DHT22;13877;18.896;-99.222;2023-08-07T04:01:22;22.10;99.90
12413;DHT22;13877;18.896;-99.222;2023-08-07T04:03:49;22.10;99.90
12413;DHT22;13877;18.896;-99.222;2023-08-07T04:06:15;22.30;99.90
12413;DHT22;13877;18.896;-99.222;2023-08-07T04:08:44;22.20;99.90
12413;DHT22;13877;18.896;-99.222;2023-08-07T04:11:11;22.20;99.90
12413;DHT22;13877;18.896;-99.222;2023-08-07T04:13:37;22.10;99.90
12413;DHT22;13877;18.896;-99.222;2023-08-07T04:16:04;22.00;99.90
12413;DHT22;13877;18.896;-99.222;2023-08-07T04:18:34;22.00;99.90
12413;DHT22;13877;18.896;-99.222;2023-08-07T04:21:02;22.10;99.90
12413;DHT22;13877;18.896;-99.222;2023-08-07T04:23:28;22.10;99.90
12413;DHT22;13877;18.896;-99.222;2023-08-07T04:25:55;22.00;99.90
12413;DHT22;13877;18.896;-99.222;2023-08-07T04:28:21;22.10;99.90
12413;DHT22;13877;18.896;-99.222;2023-08-07T04:30:51;22.20;99.90
12413;DHT22;13877;18.896;-99.222;2023-08-07T04:33:18;22.20;99.90
12413;DHT22;13877;18.896;-99.222;2023-08-07T04:35:44;22.20;99.90
12413;DHT22;13877;18.896;-99.222;2023-08-07T04:38:13;22.20;99.90
12413;DHT22;13877;18.896;-99.222;2023-08-07T04:40:46;22.10;99.90
12413;DHT22;13877;18.896;-99.222;2023-08-07T04:43:13;22.10;99.90
12413;DHT22;13877;18.896;-99.222;2023-08-07T04:45:40;22.10;99.90
12413;DHT22;13877;18.896;-99.222;2023-08-07T04:48:07;22.20;99.90
12413;DHT22;13877;18.896;-99.222;2023-08-07T04:50:33;22.20;99.90
12413;DHT22;13877;18.896;-99.222;2023-08-07T04:53:00;22.20;99.90
12413;DHT22;13877;18.896;-99.222;2023-08-07T04:55:26;22.20;99.90
12413;DHT22;13877;18.896;-99.222;2023-08-07T04:57:53;22.20;99.90
12413;DHT22;13877;18.896;-99.222;2023-08-07T05:00:22;22.20;99.90
12413;DHT22;13877;18.896;-99.222;2023-08-07T05:02:49;22.20;99.90
12413;DHT22;13877;18.896;-99.222;2023-08-07T05:05:16;22.10;99.90
12413;DHT22;13877;18.896;-99.222;2023-08-07T05:07:43;22.20;99.90
12413;DHT22;13877;18.896;-99.222;2023-08-07T05:10:09;22.20;99.90
12413;DHT22;13877;18.896;-99.222;2023-08-07T05:12:36;22.20;99.90
12413;DHT22;13877;18.896;-99.222;2023-08-07T05:15:02;22.20;99.90
12413;DHT22;13877;18.896;-99.222;2023-08-07T05:17:29;22.20;99.90
12413;DHT22;13877;18.896;-99.222;2023-08-07T05:19:55;22.20;99.90
12413;DHT22;13877;18.896;-99.222;2023-08-07T05:22:21;22.30;99.90
12413;DHT22;13877;18.896;-99.222;2023-08-07T05:24:48;22.30;99.90
12413;DHT22;13877;18.896;-99.222;2023-08-07T05:27:14;22.40;99.90
12413;DHT22;13877;18.896;-99.222;2023-08-07T05:29:41;22.40;99.90
12413;DHT22;13877;18.896;-99.222;2023-08-07T05:32:11;22.30;99.90
12413;DHT22;13877;18.896;-99.222;2023-08-07T05:34:37;22.30;99.90
12413;DHT22;13877;18.896;-99.222;2023-08-07T05:37:04;22.40;99.90
12413;DHT22;13877;18.896;-99.222;2023-08-07T05:39:30;22.30;99.90
12413;DHT22;13877;18.896;-99.222;2023-08-07T05:41:57;22.40;99.90
12413;DHT22;13877;18.896;-99.222;2023-08-07T05:44:24;22.40;99.90
12413;DHT22;13877;18.896;-99.222;2023-08-07T05:46:50;22.30;99.90
12413;DHT22;13877;18.896;-99.222;2023-08-07T05:49:16;22.30;99.90
12413;DHT22;13877;18.896;-99.222;2023-08-07T05:51:43;22.30;99.90
12413;DHT22;13877;18.896;-99.222;2023-08-07T05:54:09;22.20;99.90
12413;DHT22;13877;18.896;-99.222;2023-08-07T05:56:37;22.20;99.90
12413;DHT22;13877;18.896;-99.222;2023-08-07T05:59:04;22.20;99.90
12413;DHT22;13877;18.896;-99.222;2023-08-07T06:01:30;22.20;99.90
12413;DHT22;13877;18.896;-99.222;2023-08-07T06:03:57;22.10;99.90
12413;DHT22;13877;18.896;-99.222;2023-08-07T06:06:24;22.00;99.90
12413;DHT22;13877;18.896;-99.222;2023-08-07T06:08:51;21.90;99.90
12413;DHT22;13877;18.896;-99.222;2023-08-07T06:11:18;21.90;99.90
12413;DHT22;13877;18.896;-99.222;2023-08-07T06:13:44;21.80;99.90
12413;DHT22;13877;18.896;-99.222;2023-08-07T06:16:10;21.80;99.90
12413;DHT22;13877;18.896;-99.222;2023-08-07T06:18:37;21.80;99.90
12413;DHT22;13877;18.896;-99.222;2023-08-07T06:21:03;21.80;99.90
12413;DHT22;13877;18.896;-99.222;2023-08-07T06:23:33;21.70;99.90
12413;DHT22;13877;18.896;-99.222;2023-08-07T06:25:59;21.70;99.90
12413;DHT22;13877;18.896;-99.222;2023-08-07T06:28:31;21.50;99.90
12413;DHT22;13877;18.896;-99.222;2023-08-07T06:31:01;21.50;99.90
12413;DHT22;13877;18.896;-99.222;2023-08-07T06:33:28;21.50;99.90
12413;DHT22;13877;18.896;-99.222;2023-08-07T06:35:54;21.50;99.90
12413;DHT22;13877;18.896;-99.222;2023-08-07T06:38:21;21.60;99.90
12413;DHT22;13877;18.896;-99.222;2023-08-07T06:40:47;21.60;99.90
12413;DHT22;13877;18.896;-99.222;2023-08-07T06:43:13;21.70;99.90
12413;DHT22;13877;18.896;-99.222;2023-08-07T06:45:40;21.70;99.90
12413;DHT22;13877;18.896;-99.222;2023-08-07T06:48:06;21.80;99.90
12413;DHT22;13877;18.896;-99.222;2023-08-07T06:50:33;21.80;99.90
12413;DHT22;13877;18.896;-99.222;2023-08-07T06:52:59;21.80;99.90
12413;DHT22;13877;18.896;-99.222;2023-08-07T06:55:25;21.90;99.90
12413;DHT22;13877;18.896;-99.222;2023-08-07T06:57:52;21.90;99.90
12413;DHT22;13877;18.896;-99.222;2023-08-07T07:00:18;21.80;99.90
12413;DHT22;13877;18.896;-99.222;2023-08-07T07:02:45;21.70;99.90
12413;DHT22;13877;18.896;-99.222;2023-08-07T07:05:12;21.70;99.90
12413;DHT22;13877;18.896;-99.222;2023-08-07T07:07:39;21.60;99.90
12413;DHT22;13877;18.896;-99.222;2023-08-07T07:10:05;21.50;99.90
12413;DHT22;13877;18.896;-99.222;2023-08-07T07:12:32;21.40;99.90
12413;DHT22;13877;18.896;-99.222;2023-08-07T07:14:58;21.30;99.90
12413;DHT22;13877;18.896;-99.222;2023-08-07T07:17:25;21.20;99.90
12413;DHT22;13877;18.896;-99.222;2023-08-07T07:19:51;21.20;99.90
12413;DHT22;13877;18.896;-99.222;2023-08-07T07:22:17;21.20;99.90
12413;DHT22;13877;18.896;-99.222;2023-08-07T07:24:44;21.20;99.90
12413;DHT22;13877;18.896;-99.222;2023-08-07T07:27:10;21.30;99.90
12413;DHT22;13877;18.896;-99.222;2023-08-07T07:29:37;21.30;99.90
12413;DHT22;13877;18.896;-99.222;2023-08-07T07:32:03;21.40;99.90
12413;DHT22;13877;18.896;-99.222;2023-08-07T07:34:29;21.30;99.90
12413;DHT22;13877;18.896;-99.222;2023-08-07T07:36:56;21.30;99.90
12413;DHT22;13877;18.896;-99.222;2023-08-07T07:39:22;21.30;99.90
12413;DHT22;13877;18.896;-99.222;2023-08-07T07:41:49;21.20;99.90
12413;DHT22;13877;18.896;-99.222;2023-08-07T07:44:15;21.10;99.90
12413;DHT22;13877;18.896;-99.222;2023-08-07T07:46:42;21.00;99.90
12413;DHT22;13877;18.896;-99.222;2023-08-07T07:49:08;20.90;99.90
12413;DHT22;13877;18.896;-99.222;2023-08-07T07:51:34;20.90;99.90
12413;DHT22;13877;18.896;-99.222;2023-08-07T07:54:02;20.90;99.90
12413;DHT22;13877;18.896;-99.222;2023-08-07T07:56:29;20.90;99.90
12413;DHT22;13877;18.896;-99.222;2023-08-07T07:58:55;20.80;99.90
12413;DHT22;13877;18.896;-99.222;2023-08-07T08:01:22;20.70;99.90
12413;DHT22;13877;18.896;-99.222;2023-08-07T08:03:49;20.70;99.90
12413;DHT22;13877;18.896;-99.222;2023-08-07T08:06:16;20.60;99.90
12413;DHT22;13877;18.896;-99.222;2023-08-07T08:08:42;20.60;99.90
12413;DHT22;13877;18.896;-99.222;2023-08-07T08:11:08;20.60;99.90
12413;DHT22;13877;18.896;-99.222;2023-08-07T08:13:35;20.60;99.90
12413;DHT22;13877;18.896;-99.222;2023-08-07T08:16:05;20.60;99.90
12413;DHT22;13877;18.896;-99.222;2023-08-07T08:18:31;20.60;99.90
12413;DHT22;13877;18.896;-99.222;2023-08-07T08:20:58;20.50;99.90
12413;DHT22;13877;18.896;-99.222;2023-08-07T08:23:24;20.40;99.90
12413;DHT22;13877;18.896;-99.222;2023-08-07T08:25:50;20.40;99.90
12413;DHT22;13877;18.896;-99.222;2023-08-07T08:28:17;20.50;99.90
12413;DHT22;13877;18.896;-99.222;2023-08-07T08:30:43;20.60;99.90
12413;DHT22;13877;18.896;-99.222;2023-08-07T08:33:10;20.70;99.90
12413;DHT22;13877;18.896;-99.222;2023-08-07T08:35:38;20.80;99.90
12413;DHT22;13877;18.896;-99.222;2023-08-07T08:38:05;20.90;99.90
12413;DHT22;13877;18.896;-99.222;2023-08-07T08:40:32;21.00;99.90
12413;DHT22;13877;18.896;-99.222;2023-08-07T08:43:02;21.10;99.90
12413;DHT22;13877;18.896;-99.222;2023-08-07T08:45:31;21.20;99.90
12413;DHT22;13877;18.896;-99.222;2023-08-07T08:48:03;21.20;99.90
12413;DHT22;13877;18.896;-99.222;2023-08-07T08:50:30;21.20;99.90
12413;DHT22;13877;18.896;-99.222;2023-08-07T08:52:57;21.20;99.90
12413;DHT22;13877;18.896;-99.222;2023-08-07T08:55:24;21.10;99.90
12413;DHT22;13877;18.896;-99.222;2023-08-07T08:57:51;21.00;99.90
12413;DHT22;13877;18.896;-99.222;2023-08-07T09:00:19;21.00;99.90
12413;DHT22;13877;18.896;-99.222;2023-08-07T09:02:50;20.90;99.90
12413;DHT22;13877;18.896;-99.222;2023-08-07T09:05:18;20.80;99.90
12413;DHT22;13877;18.896;-99.222;2023-08-07T09:07:46;20.80;99.90
12413;DHT22;13877;18.896;-99.222;2023-08-07T09:10:13;20.70;99.90
12413;DHT22;13877;18.896;-99.222;2023-08-07T09:12:40;20.70;99.90
12413;DHT22;13877;18.896;-99.222;2023-08-07T09:15:07;20.70;99.90
12413;DHT22;13877;18.896;-99.222;2023-08-07T09:17:35;20.70;99.90
12413;DHT22;13877;18.896;-99.222;2023-08-07T09:20:03;20.60;99.90
12413;DHT22;13877;18.896;-99.222;2023-08-07T09:22:30;20.30;99.90
12413;DHT22;13877;18.896;-99.222;2023-08-07T09:24:57;20.20;99.90
12413;DHT22;13877;18.896;-99.222;2023-08-07T09:27:25;20.20;99.90
12413;DHT22;13877;18.896;-99.222;2023-08-07T09:29:54;20.20;99.90
12413;DHT22;13877;18.896;-99.222;2023-08-07T09:32:20;20.20;99.90
12413;DHT22;13877;18.896;-99.222;2023-08-07T09:34:50;20.40;99.90
12413;DHT22;13877;18.896;-99.222;2023-08-07T09:37:17;20.40;99.90
12413;DHT22;13877;18.896;-99.222;2023-08-07T09:39:44;20.40;99.90
12413;DHT22;13877;18.896;-99.222;2023-08-07T09:42:16;20.20;99.90
12413;DHT22;13877;18.896;-99.222;2023-08-07T09:44:43;20.20;99.90
12413;DHT22;13877;18.896;-99.222;2023-08-07T09:47:13;20.00;99.90
12413;DHT22;13877;18.896;-99.222;2023-08-07T09:49:43;19.90;99.90
12413;DHT22;13877;18.896;-99.222;2023-08-07T09:52:10;19.90;99.90
12413;DHT22;13877;18.896;-99.222;2023-08-07T09:54:39;19.90;99.90
12413;DHT22;13877;18.896;-99.222;2023-08-07T09:57:05;19.80;99.90
12413;DHT22;13877;18.896;-99.222;2023-08-07T09:59:33;19.70;99.90
12413;DHT22;13877;18.896;-99.222;2023-08-07T10:02:00;19.70;99.90
12413;DHT22;13877;18.896;-99.222;2023-08-07T10:04:28;19.60;99.90
12413;DHT22;13877;18.896;-99.222;2023-08-07T10:06:55;19.50;99.90
12413;DHT22;13877;18.896;-99.222;2023-08-07T10:09:21;19.30;99.90
12413;DHT22;13877;18.896;-99.222;2023-08-07T10:11:51;19.30;99.90
12413;DHT22;13877;18.896;-99.222;2023-08-07T10:14:18;19.40;99.90
12413;DHT22;13877;18.896;-99.222;2023-08-07T10:16:45;19.40;99.90
12413;DHT22;13877;18.896;-99.222;2023-08-07T10:19:11;19.30;99.90
12413;DHT22;13877;18.896;-99.222;2023-08-07T10:21:38;19.20;99.90
12413;DHT22;13877;18.896;-99.222;2023-08-07T10:24:05;19.20;99.90
12413;DHT22;13877;18.896;-99.222;2023-08-07T10:26:33;19.20;99.90
12413;DHT22;13877;18.896;-99.222;2023-08-07T10:29:03;19.10;99.90
12413;DHT22;13877;18.896;-99.222;2023-08-07T10:31:30;19.10;99.90
12413;DHT22;13877;18.896;-99.222;2023-08-07T10:33:57;19.00;99.90
12413;DHT22;13877;18.896;-99.222;2023-08-07T10:36:26;19.00;99.90
12413;DHT22;13877;18.896;-99.222;2023-08-07T10:39:07;19.10;99.90
12413;DHT22;13877;18.896;-99.222;2023-08-07T10:41:42;19.10;99.90
12413;DHT22;13877;18.896;-99.222;2023-08-07T10:44:18;19.10;99.90
12413;DHT22;13877;18.896;-99.222;2023-08-07T10:46:48;19.10;99.90
12413;DHT22;13877;18.896;-99.222;2023-08-07T10:52:11;19.20;99.90
12413;DHT22;13877;18.896;-99.222;2023-08-07T10:54:44;19.20;99.90
12413;DHT22;13877;18.896;-99.222;2023-08-07T10:57:15;19.20;99.90
12413;DHT22;13877;18.896;-99.222;2023-08-07T10:59:49;19.10;99.90
12413;DHT22;13877;18.896;-99.222;2023-08-07T11:02:22;19.10;99.90
12413;DHT22;13877;18.896;-99.222;2023-08-07T11:04:49;19.20;99.90
12413;DHT22;13877;18.896;-99.222;2023-08-07T11:07:25;19.30;99.90
12413;DHT22;13877;18.896;-99.222;2023-08-07T11:09:52;19.20;99.90
12413;DHT22;13877;18.896;-99.222;2023-08-07T11:12:19;19.00;99.90
12413;DHT22;13877;18.896;-99.222;2023-08-07T11:14:46;19.00;99.90
12413;DHT22;13877;18.896;-99.222;2023-08-07T11:17:12;19.00;99.90
12413;DHT22;13877;18.896;-99.222;2023-08-07T11:19:39;19.00;99.90
12413;DHT22;13877;18.896;-99.222;2023-08-07T11:22:05;19.00;99.90
12413;DHT22;13877;18.896;-99.222;2023-08-07T11:24:32;19.00;99.90
12413;DHT22;13877;18.896;-99.222;2023-08-07T11:26:58;19.10;99.90
12413;DHT22;13877;18.896;-99.222;2023-08-07T11:29:24;19.10;99.90
12413;DHT22;13877;18.896;-99.222;2023-08-07T11:31:51;19.10;99.90
12413;DHT22;13877;18.896;-99.222;2023-08-07T11:34:17;19.10;99.90
12413;DHT22;13877;18.896;-99.222;2023-08-07T11:36:47;19.00;99.90
12413;DHT22;13877;18.896;-99.222;2023-08-07T11:39:14;18.90;99.90
12413;DHT22;13877;18.896;-99.222;2023-08-07T11:41:40;18.90;99.90
12413;DHT22;13877;18.896;-99.222;2023-08-07T11:44:10;18.90;99.90
12413;DHT22;13877;18.896;-99.222;2023-08-07T11:46:36;18.90;99.90
12413;DHT22;13877;18.896;-99.222;2023-08-07T11:49:02;18.90;99.90
12413;DHT22;13877;18.896;-99.222;2023-08-07T11:51:33;18.70;99.90
12413;DHT22;13877;18.896;-99.222;2023-08-07T11:53:59;18.40;99.90
12413;DHT22;13877;18.896;-99.222;2023-08-07T11:56:26;18.30;99.90
12413;DHT22;13877;18.896;-99.222;2023-08-07T11:58:52;18.20;99.90
12413;DHT22;13877;18.896;-99.222;2023-08-07T12:01:20;18.20;99.90
12413;DHT22;13877;18.896;-99.222;2023-08-07T12:06:32;18.10;99.90
12413;DHT22;13877;18.896;-99.222;2023-08-07T12:08:59;18.20;99.90
12413;DHT22;13877;18.896;-99.222;2023-08-07T12:11:26;18.30;99.90
12413;DHT22;13877;18.896;-99.222;2023-08-07T12:13:52;18.50;99.90
12413;DHT22;13877;18.896;-99.222;2023-08-07T12:16:18;18.60;99.90
12413;DHT22;13877;18.896;-99.222;2023-08-07T12:18:45;18.70;99.90
12413;DHT22;13877;18.896;-99.222;2023-08-07T12:21:17;18.80;99.90
12413;DHT22;13877;18.896;-99.222;2023-08-07T12:23:45;18.80;99.90
12413;DHT22;13877;18.896;-99.222;2023-08-07T12:26:14;18.90;99.90
12413;DHT22;13877;18.896;-99.222;2023-08-07T12:28:40;19.00;99.90
12413;DHT22;13877;18.896;-99.222;2023-08-07T12:31:06;19.10;99.90
12413;DHT22;13877;18.896;-99.222;2023-08-07T12:33:33;19.40;99.90
12413;DHT22;13877;18.896;-99.222;2023-08-07T12:35:59;19.70;99.90
12413;DHT22;13877;18.896;-99.222;2023-08-07T12:38:26;19.80;99.90
12413;DHT22;13877;18.896;-99.222;2023-08-07T12:40:53;20.00;99.90
12413;DHT22;13877;18.896;-99.222;2023-08-07T12:43:19;20.20;99.90
12413;DHT22;13877;18.896;-99.222;2023-08-07T12:45:46;20.40;99.90
12413;DHT22;13877;18.896;-99.222;2023-08-07T12:48:12;20.50;99.90
12413;DHT22;13877;18.896;-99.222;2023-08-07T12:50:39;20.70;99.90
12413;DHT22;13877;18.896;-99.222;2023-08-07T12:53:06;20.90;99.90
12413;DHT22;13877;18.896;-99.222;2023-08-07T12:55:32;21.10;99.90
12413;DHT22;13877;18.896;-99.222;2023-08-07T12:57:59;21.20;99.90
12413;DHT22;13877;18.896;-99.222;2023-08-07T13:00:25;21.30;99.90
12413;DHT22;13877;18.896;-99.222;2023-08-07T13:02:52;21.40;99.90
12413;DHT22;13877;18.896;-99.222;2023-08-07T13:05:20;21.50;99.90
12413;DHT22;13877;18.896;-99.222;2023-08-07T13:07:47;21.70;99.90
12413;DHT22;13877;18.896;-99.222;2023-08-07T13:10:15;21.80;99.90
12413;DHT22;13877;18.896;-99.222;2023-08-07T13:12:42;21.90;99.90
12413;DHT22;13877;18.896;-99.222;2023-08-07T13:15:10;22.00;99.90
12413;DHT22;13877;18.896;-99.222;2023-08-07T13:17:39;22.10;99.90
12413;DHT22;13877;18.896;-99.222;2023-08-07T13:20:06;22.20;99.90
12413;DHT22;13877;18.896;-99.222;2023-08-07T13:22:36;22.50;99.90
12413;DHT22;13877;18.896;-99.222;2023-08-07T13:25:02;22.60;99.90
12413;DHT22;13877;18.896;-99.222;2023-08-07T13:27:30;22.40;99.90
12413;DHT22;13877;18.896;-99.222;2023-08-07T13:29:56;22.20;99.90
12413;DHT22;13877;18.896;-99.222;2023-08-07T13:32:22;22.10;99.90
12413;DHT22;13877;18.896;-99.222;2023-08-07T13:34:49;22.10;99.90
12413;DHT22;13877;18.896;-99.222;2023-08-07T13:37:15;22.10;99.90
12413;DHT22;13877;18.896;-99.222;2023-08-07T13:39:42;22.20;99.90
12413;DHT22;13877;18.896;-99.222;2023-08-07T13:42:08;22.20;99.90
12413;DHT22;13877;18.896;-99.222;2023-08-07T13:44:39;22.40;99.90
12413;DHT22;13877;18.896;-99.222;2023-08-07T13:47:05;22.30;99.90
12413;DHT22;13877;18.896;-99.222;2023-08-07T13:49:32;22.30;99.90
12413;DHT22;13877;18.896;-99.222;2023-08-07T13:51:59;22.60;99.90
12413;DHT22;13877;18.896;-99.222;2023-08-07T13:54:25;22.60;99.90
12413;DHT22;13877;18.896;-99.222;2023-08-07T13:56:52;22.50;99.90
12413;DHT22;13877;18.896;-99.222;2023-08-07T13:59:18;22.40;99.90
12413;DHT22;13877;18.896;-99.222;2023-08-07T14:01:44;22.70;99.90
12413;DHT22;13877;18.896;-99.222;2023-08-07T14:04:11;22.80;99.90
12413;DHT22;13877;18.896;-99.222;2023-08-07T14:06:39;23.10;99.90
12413;DHT22;13877;18.896;-99.222;2023-08-07T14:09:08;23.40;99.90
12413;DHT22;13877;18.896;-99.222;2023-08-07T14:11:35;23.60;99.90
12413;DHT22;13877;18.896;-99.222;2023-08-07T14:14:02;23.60;99.90
12413;DHT22;13877;18.896;-99.222;2023-08-07T14:16:28;23.60;99.90
12413;DHT22;13877;18.896;-99.222;2023-08-07T14:18:54;23.60;99.90
12413;DHT22;13877;18.896;-99.222;2023-08-07T14:21:21;23.70;99.90
12413;DHT22;13877;18.896;-99.222;2023-08-07T14:23:47;23.70;99.90
12413;DHT22;13877;18.896;-99.222;2023-08-07T14:26:15;23.80;99.90
12413;DHT22;13877;18.896;-99.222;2023-08-07T14:28:43;24.10;99.90
12413;DHT22;13877;18.896;-99.222;2023-08-07T14:31:10;23.90;99.90
12413;DHT22;13877;18.896;-99.222;2023-08-07T14:33:37;24.20;99.90
12413;DHT22;13877;18.896;-99.222;2023-08-07T14:36:04;24.10;99.90
12413;DHT22;13877;18.896;-99.222;2023-08-07T14:38:30;24.30;99.90
12413;DHT22;13877;18.896;-99.222;2023-08-07T14:40:57;24.60;99.90
12413;DHT22;13877;18.896;-99.222;2023-08-07T14:43:28;24.80;99.90
12413;DHT22;13877;18.896;-99.222;2023-08-07T14:45:55;24.80;99.90
12413;DHT22;13877;18.896;-99.222;2023-08-07T14:48:22;24.80;99.90
12413;DHT22;13877;18.896;-99.222;2023-08-07T14:50:48;25.10;99.90
12413;DHT22;13877;18.896;-99.222;2023-08-07T14:53:14;25.00;99.90
12413;DHT22;13877;18.896;-99.222;2023-08-07T14:55:41;24.80;99.90
12413;DHT22;13877;18.896;-99.222;2023-08-07T14:58:07;25.10;99.90
12413;DHT22;13877;18.896;-99.222;2023-08-07T15:00:34;25.80;99.90
12413;DHT22;13877;18.896;-99.222;2023-08-07T15:03:01;26.00;99.90
12413;DHT22;13877;18.896;-99.222;2023-08-07T15:05:28;26.10;99.90
12413;DHT22;13877;18.896;-99.222;2023-08-07T15:07:54;26.20;99.90
12413;DHT22;13877;18.896;-99.222;2023-08-07T15:10:21;26.50;99.90
12413;DHT22;13877;18.896;-99.222;2023-08-07T15:12:47;26.70;99.90
12413;DHT22;13877;18.896;-99.222;2023-08-07T15:15:14;26.80;99.90